createdAt,value
2016-12-19T00:00:48.573Z,21.82
2016-12-19T00:01:48.282Z,21.75
2016-12-19T00:02:48.304Z,21.83
2016-12-19T00:03:48.336Z,21.82
2016-12-19T00:04:48.460Z,21.82
2016-12-19T00:05:48.391Z,21.75
2016-12-19T00:06:48.438Z,21.86
2016-12-19T00:07:48.752Z,21.86
2016-12-19T00:08:48.476Z,21.8
2016-12-19T00:09:48.813Z,21.84
2016-12-19T00:10:48.834Z,21.77
2016-12-19T00:11:48.247Z,21.83
2016-12-19T00:12:48.902Z,21.8
2016-12-19T00:13:48.398Z,21.79
2016-12-19T00:14:48.940Z,21.8
2016-12-19T00:15:48.370Z,21.82
2016-12-19T00:16:49.000Z,21.8
2016-12-19T00:17:48.727Z,21.79
2016-12-19T00:18:48.750Z,21.83
2016-12-19T00:19:48.782Z,21.84
2016-12-19T00:20:49.116Z,21.8
2016-12-19T00:21:49.145Z,21.88
2016-12-19T00:22:48.559Z,21.8
2016-12-19T00:23:48.894Z,21.82
2016-12-19T00:24:48.924Z,21.82
2016-12-19T00:25:48.982Z,21.84
2016-12-19T00:26:49.384Z,21.84
2016-12-19T00:27:49.017Z,21.8
2016-12-19T00:28:49.327Z,21.84
2016-12-19T00:29:49.062Z,21.84
2016-12-19T00:30:49.091Z,21.84
2016-12-19T00:31:49.125Z,21.82
2016-12-19T00:32:49.216Z,21.84
2016-12-19T00:33:49.174Z,21.88
2016-12-19T00:34:49.499Z,21.75
2016-12-19T00:35:49.229Z,21.84
2016-12-19T00:36:49.256Z,21.8
2016-12-19T00:37:49.589Z,21.83
2016-12-19T00:38:49.647Z,21.83
2016-12-19T00:39:49.356Z,21.84
2016-12-19T00:40:49.693Z,21.75
2016-12-19T00:41:49.409Z,21.79
2016-12-19T00:42:49.444Z,21.83
2016-12-19T00:43:49.472Z,21.79
2016-12-19T00:44:49.196Z,21.77
2016-12-19T00:45:49.216Z,21.79
2016-12-19T00:46:49.554Z,21.82
2016-12-19T00:47:49.315Z,21.83
2016-12-19T00:48:49.608Z,21.83
2016-12-19T00:49:49.328Z,21.77
2016-12-19T00:50:49.381Z,21.86
2016-12-19T00:51:49.702Z,21.77
2016-12-19T00:52:49.715Z,21.8
2016-12-19T00:53:49.752Z,21.77
2016-12-19T00:54:49.784Z,21.83
2016-12-19T00:55:50.121Z,21.82
2016-12-19T00:56:49.526Z,21.82
2016-12-19T00:57:49.882Z,21.84
2016-12-19T00:58:50.223Z,21.83
2016-12-19T00:59:49.924Z,21.8
2016-12-19T01:00:49.644Z,21.82
2016-12-19T01:01:50.277Z,21.82
2016-12-19T01:02:49.695Z,21.75
2016-12-19T01:03:50.336Z,21.82
2016-12-19T01:04:50.064Z,21.86
2016-12-19T01:05:50.397Z,21.83
2016-12-19T01:06:50.109Z,21.82
2016-12-19T01:07:50.447Z,21.82
2016-12-19T01:08:50.175Z,21.75
2016-12-19T01:09:50.508Z,21.82
2016-12-19T01:10:50.256Z,21.77
2016-12-19T01:11:50.549Z,21.79
2016-12-19T01:12:50.286Z,21.79
2016-12-19T01:13:50.618Z,21.82
2016-12-19T01:14:50.647Z,21.82
2016-12-19T01:15:50.360Z,21.77
2016-12-19T01:16:50.698Z,21.74
2016-12-19T01:17:50.425Z,21.8
2016-12-19T01:18:50.771Z,21.82
2016-12-19T01:19:50.483Z,21.79
2016-12-19T01:20:50.504Z,21.82
2016-12-19T01:21:50.220Z,21.79
2016-12-19T01:22:50.254Z,21.74
2016-12-19T01:23:50.898Z,21.79
2016-12-19T01:24:50.619Z,21.77
2016-12-19T01:25:50.336Z,21.8
2016-12-19T01:26:50.360Z,21.77
2016-12-19T01:27:50.708Z,21.79
2016-12-19T01:28:50.730Z,21.86
2016-12-19T01:29:50.759Z,21.79
2016-12-19T01:30:50.479Z,21.72
2016-12-19T01:31:50.808Z,21.82
2016-12-19T01:32:51.145Z,21.84
2016-12-19T01:33:51.178Z,21.88
2016-12-19T01:34:50.895Z,21.8
2016-12-19T01:35:50.919Z,21.82
2016-12-19T01:36:50.935Z,21.77
2016-12-19T01:37:51.284Z,21.82
2016-12-19T01:38:51.313Z,21.74
2016-12-19T01:39:51.026Z,21.79
2016-12-19T01:40:51.067Z,21.83
2016-12-19T01:41:50.795Z,21.82
2016-12-19T01:42:51.106Z,21.79
2016-12-19T01:43:51.442Z,21.74
2016-12-19T01:44:51.185Z,21.77
2016-12-19T01:45:50.906Z,21.74
2016-12-19T01:46:50.931Z,21.83
2016-12-19T01:47:51.560Z,21.74
2016-12-19T01:48:51.280Z,21.77
2016-12-19T01:49:51.009Z,21.71
2016-12-19T01:50:51.638Z,21.82
2016-12-19T01:51:51.062Z,21.71
2016-12-19T01:52:51.088Z,21.68
2016-12-19T01:53:51.112Z,21.75
2016-12-19T01:54:51.449Z,21.74
2016-12-19T01:55:51.170Z,21.72
2016-12-19T01:56:51.509Z,21.72
2016-12-19T01:57:51.235Z,21.79
2016-12-19T01:58:51.265Z,21.77
2016-12-19T01:59:51.593Z,21.72
2016-12-19T02:00:51.918Z,21.74
2016-12-19T02:01:51.647Z,21.82
2016-12-19T02:02:51.360Z,21.72
2016-12-19T02:03:51.388Z,21.77
2016-12-19T02:04:51.420Z,21.75
2016-12-19T02:05:51.753Z,21.77
2016-12-19T02:06:52.093Z,21.75
2016-12-19T02:07:51.503Z,21.8
2016-12-19T02:08:51.544Z,21.83
2016-12-19T02:09:52.168Z,21.79
2016-12-19T02:10:51.893Z,21.8
2016-12-19T02:11:51.622Z,21.77
2016-12-19T02:12:52.259Z,21.75
2016-12-19T02:13:51.991Z,21.77
2016-12-19T02:14:52.004Z,21.75
2016-12-19T02:15:52.335Z,21.82
2016-12-19T02:16:52.053Z,21.84
2016-12-19T02:17:52.083Z,21.75
2016-12-19T02:18:51.822Z,21.75
2016-12-19T02:19:52.148Z,21.79
2016-12-19T02:20:52.472Z,21.77
2016-12-19T02:21:52.205Z,21.77
2016-12-19T02:22:51.925Z,21.82
2016-12-19T02:23:52.263Z,21.84
2016-12-19T02:24:51.982Z,21.75
2016-12-19T02:25:52.616Z,21.77
2016-12-19T02:26:52.645Z,21.75
2016-12-19T02:27:52.378Z,21.82
2016-12-19T02:28:52.395Z,21.79
2016-12-19T02:29:52.423Z,21.86
2016-12-19T02:30:52.759Z,21.83
2016-12-19T02:31:52.484Z,21.75
2016-12-19T02:32:52.504Z,21.77
2016-12-19T02:33:52.562Z,21.77
2016-12-19T02:34:52.254Z,21.72
2016-12-19T02:35:52.596Z,21.75
2016-12-19T02:36:52.620Z,21.82
2016-12-19T02:37:52.949Z,21.75
2016-12-19T02:38:52.672Z,21.75
2016-12-19T02:39:53.011Z,21.79
2016-12-19T02:40:53.040Z,21.82
2016-12-19T02:41:52.452Z,21.77
2016-12-19T02:42:52.793Z,21.75
2016-12-19T02:43:52.814Z,21.77
2016-12-19T02:44:53.150Z,21.83
2016-12-19T02:45:52.863Z,21.8
2016-12-19T02:46:52.904Z,21.77
2016-12-19T02:47:53.225Z,21.77
2016-12-19T02:48:52.946Z,21.75
2016-12-19T02:49:52.675Z,21.83
2016-12-19T02:50:53.015Z,21.8
2016-12-19T02:51:52.735Z,21.8
2016-12-19T02:52:53.064Z,21.8
2016-12-19T02:53:53.097Z,21.82
2016-12-19T02:54:52.814Z,21.79
2016-12-19T02:55:53.455Z,21.82
2016-12-19T02:56:53.175Z,21.83
2016-12-19T02:57:53.512Z,21.8
2016-12-19T02:58:53.229Z,21.83
2016-12-19T02:59:52.953Z,21.83
2016-12-19T03:00:53.290Z,21.83
2016-12-19T03:01:53.316Z,21.86
2016-12-19T03:02:53.040Z,21.77
2016-12-19T03:03:53.373Z,21.8
2016-12-19T03:04:53.397Z,21.79
2016-12-19T03:05:53.427Z,21.83
2016-12-19T03:06:53.755Z,21.75
2016-12-19T03:07:53.169Z,21.75
2016-12-19T03:08:53.821Z,21.79
2016-12-19T03:09:53.537Z,21.74
2016-12-19T03:10:53.568Z,21.77
2016-12-19T03:11:53.282Z,21.75
2016-12-19T03:12:53.623Z,21.83
2016-12-19T03:13:53.653Z,21.75
2016-12-19T03:14:53.373Z,21.8
2016-12-19T03:15:53.706Z,21.74
2016-12-19T03:16:53.730Z,21.74
2016-12-19T03:17:53.759Z,21.74
2016-12-19T03:18:53.792Z,21.72
2016-12-19T03:19:53.814Z,21.71
2016-12-19T03:20:53.838Z,21.77
2016-12-19T03:21:54.183Z,21.74
2016-12-19T03:22:53.887Z,21.74
2016-12-19T03:23:53.919Z,21.77
2016-12-19T03:24:53.967Z,21.79
2016-12-19T03:25:53.680Z,21.71
2016-12-19T03:26:54.305Z,21.75
2016-12-19T03:27:54.041Z,21.69
2016-12-19T03:28:54.095Z,21.69
2016-12-19T03:29:54.392Z,21.77
2016-12-19T03:30:54.116Z,21.69
2016-12-19T03:31:53.841Z,21.74
2016-12-19T03:32:54.481Z,21.77
2016-12-19T03:33:54.511Z,21.69
2016-12-19T03:34:54.531Z,21.77
2016-12-19T03:35:53.984Z,21.74
2016-12-19T03:36:53.981Z,21.75
2016-12-19T03:37:54.313Z,21.74
2016-12-19T03:38:54.038Z,21.74
2016-12-19T03:39:54.672Z,21.79
2016-12-19T03:40:54.396Z,21.77
2016-12-19T03:41:54.429Z,21.74
2016-12-19T03:42:54.759Z,21.74
2016-12-19T03:43:54.178Z,21.71
2016-12-19T03:44:54.507Z,21.74
2016-12-19T03:45:54.839Z,21.8
2016-12-19T03:46:54.565Z,21.71
2016-12-19T03:47:54.592Z,21.77
2016-12-19T03:48:54.621Z,21.82
2016-12-19T03:49:54.954Z,21.75
2016-12-19T03:50:54.363Z,21.72
2016-12-19T03:51:55.004Z,21.75
2016-12-19T03:52:54.728Z,21.83
2016-12-19T03:53:54.454Z,21.75
2016-12-19T03:54:54.490Z,21.72
2016-12-19T03:55:55.123Z,21.77
2016-12-19T03:56:54.532Z,21.79
2016-12-19T03:57:54.869Z,21.72
2016-12-19T03:58:55.214Z,21.8
2016-12-19T03:59:55.234Z,21.75
2016-12-19T04:00:54.951Z,21.75
2016-12-19T04:01:54.982Z,21.75
2016-12-19T04:02:54.716Z,21.83
2016-12-19T04:03:55.065Z,21.74
2016-12-19T04:04:55.366Z,21.83
2016-12-19T04:05:55.086Z,21.83
2016-12-19T04:06:54.815Z,21.77
2016-12-19T04:07:55.456Z,21.8
2016-12-19T04:08:54.877Z,21.75
2016-12-19T04:09:54.918Z,21.74
2016-12-19T04:10:54.930Z,21.84
2016-12-19T04:11:55.559Z,21.74
2016-12-19T04:12:55.288Z,21.74
2016-12-19T04:13:55.317Z,21.75
2016-12-19T04:14:55.341Z,21.8
2016-12-19T04:15:55.679Z,21.84
2016-12-19T04:16:55.705Z,21.82
2016-12-19T04:17:55.128Z,21.77
2016-12-19T04:18:55.456Z,21.77
2016-12-19T04:19:55.173Z,21.82
2016-12-19T04:20:55.514Z,21.77
2016-12-19T04:21:55.235Z,21.74
2016-12-19T04:22:55.563Z,21.79
2016-12-19T04:23:55.597Z,21.74
2016-12-19T04:24:55.633Z,21.77
2016-12-19T04:25:55.649Z,21.74
2016-12-19T04:26:55.670Z,21.77
2016-12-19T04:27:56.020Z,21.79
2016-12-19T04:28:55.731Z,21.74
2016-12-19T04:29:55.448Z,21.72
2016-12-19T04:30:55.793Z,21.82
2016-12-19T04:31:56.122Z,21.74
2016-12-19T04:32:55.842Z,21.71
2016-12-19T04:33:55.875Z,21.72
2016-12-19T04:34:55.592Z,21.75
2016-12-19T04:35:55.645Z,21.79
2016-12-19T04:36:55.956Z,21.74
2016-12-19T04:37:55.679Z,21.74
2016-12-19T04:38:56.012Z,21.72
2016-12-19T04:39:56.344Z,21.79
2016-12-19T04:40:55.764Z,21.69
2016-12-19T04:41:56.406Z,21.72
2016-12-19T04:42:56.422Z,21.77
2016-12-19T04:43:56.456Z,21.72
2016-12-19T04:44:55.876Z,21.75
2016-12-19T04:45:56.215Z,21.72
2016-12-19T04:46:56.233Z,21.69
2016-12-19T04:47:56.262Z,21.75
2016-12-19T04:48:56.591Z,21.74
2016-12-19T04:49:56.320Z,21.69
2016-12-19T04:50:56.649Z,21.74
2016-12-19T04:51:56.677Z,21.67
2016-12-19T04:52:56.402Z,21.71
2016-12-19T04:53:56.119Z,21.69
2016-12-19T04:54:56.443Z,21.69
2016-12-19T04:55:56.477Z,21.69
2016-12-19T04:56:56.201Z,21.68
2016-12-19T04:57:56.239Z,21.72
2016-12-19T04:58:56.259Z,21.69
2016-12-19T04:59:56.283Z,21.69
2016-12-19T05:00:56.316Z,21.74
2016-12-19T05:01:56.653Z,21.71
2016-12-19T05:02:56.974Z,21.68
2016-12-19T05:03:56.402Z,21.74
2016-12-19T05:04:56.731Z,21.72
2016-12-19T05:05:57.068Z,21.71
2016-12-19T05:06:56.793Z,21.77
2016-12-19T05:07:56.805Z,21.74
2016-12-19T05:08:56.842Z,21.69
2016-12-19T05:09:56.875Z,21.75
2016-12-19T05:10:56.892Z,21.72
2016-12-19T05:11:56.932Z,21.74
2016-12-19T05:12:57.256Z,21.75
2016-12-19T05:13:56.681Z,21.77
2016-12-19T05:14:57.007Z,21.74
2016-12-19T05:15:57.340Z,21.79
2016-12-19T05:16:57.378Z,21.79
2016-12-19T05:17:57.097Z,21.69
2016-12-19T05:18:57.123Z,21.77
2016-12-19T05:19:56.847Z,21.74
2016-12-19T05:20:56.868Z,21.79
2016-12-19T05:21:56.896Z,21.72
2016-12-19T05:22:56.930Z,21.74
2016-12-19T05:23:56.954Z,21.74
2016-12-19T05:24:57.279Z,21.72
2016-12-19T05:25:57.012Z,21.71
2016-12-19T05:26:57.653Z,21.72
2016-12-19T05:27:57.369Z,21.68
2016-12-19T05:28:57.097Z,21.71
2016-12-19T05:29:57.432Z,21.74
2016-12-19T05:30:57.455Z,21.69
2016-12-19T05:31:57.180Z,21.8
2016-12-19T05:32:57.817Z,21.75
2016-12-19T05:33:57.837Z,21.71
2016-12-19T05:34:57.562Z,21.69
2016-12-19T05:35:57.586Z,21.72
2016-12-19T05:36:57.303Z,21.68
2016-12-19T05:37:57.953Z,21.75
2016-12-19T05:38:57.673Z,21.68
2016-12-19T05:39:57.706Z,21.75
2016-12-19T05:40:57.430Z,21.68
2016-12-19T05:41:57.763Z,21.77
2016-12-19T05:42:58.104Z,21.68
2016-12-19T05:43:58.157Z,21.72
2016-12-19T05:44:57.845Z,21.82
2016-12-19T05:45:58.172Z,21.75
2016-12-19T05:46:57.899Z,21.77
2016-12-19T05:47:58.232Z,21.82
2016-12-19T05:48:58.253Z,21.83
2016-12-19T05:49:57.677Z,21.82
2016-12-19T05:50:58.006Z,21.83
2016-12-19T05:51:57.730Z,21.83
2016-12-19T05:52:57.755Z,21.83
2016-12-19T05:53:58.100Z,21.88
2016-12-19T05:54:58.125Z,21.88
2016-12-19T05:55:58.137Z,21.8
2016-12-19T05:56:57.874Z,21.86
2016-12-19T05:57:58.207Z,21.84
2016-12-19T05:58:58.235Z,21.79
2016-12-19T05:59:58.564Z,21.9
2016-12-19T06:00:57.977Z,21.84
2016-12-19T06:01:58.622Z,21.9
2016-12-19T06:02:58.359Z,21.79
2016-12-19T06:03:58.062Z,21.88
2016-12-19T06:04:58.699Z,21.88
2016-12-19T06:05:58.130Z,21.88
2016-12-19T06:06:58.156Z,21.79
2016-12-19T06:07:58.479Z,21.8
2016-12-19T06:08:58.203Z,21.88
2016-12-19T06:09:58.546Z,21.9
2016-12-19T06:10:58.555Z,21.82
2016-12-19T06:11:58.592Z,21.83
2016-12-19T06:12:58.621Z,21.79
2016-12-19T06:13:58.654Z,21.88
2016-12-19T06:14:58.362Z,21.77
2016-12-19T06:15:58.395Z,21.84
2016-12-19T06:16:59.031Z,21.79
2016-12-19T06:17:58.444Z,21.84
2016-12-19T06:18:58.780Z,21.79
2016-12-19T06:19:58.810Z,21.77
2016-12-19T06:20:58.830Z,21.77
2016-12-19T06:21:58.559Z,21.79
2016-12-19T06:22:59.220Z,21.75
2016-12-19T06:23:58.621Z,21.77
2016-12-19T06:24:59.261Z,21.67
2016-12-19T06:25:58.669Z,21.69
2016-12-19T06:26:59.011Z,21.68
2016-12-19T06:27:58.729Z,21.67
2016-12-19T06:28:59.376Z,21.74
2016-12-19T06:29:59.408Z,21.68
2016-12-19T06:30:59.410Z,21.69
2016-12-19T06:31:58.854Z,21.68
2016-12-19T06:32:59.483Z,21.69
2016-12-19T06:33:58.904Z,21.72
2016-12-19T06:34:59.538Z,21.77
2016-12-19T06:35:58.953Z,21.72
2016-12-19T06:36:59.281Z,21.74
2016-12-19T06:37:59.311Z,21.77
2016-12-19T06:38:59.040Z,21.71
2016-12-19T06:39:59.372Z,21.88
2016-12-19T06:40:59.386Z,21.82
2016-12-19T06:41:59.421Z,21.82
2016-12-19T06:42:59.762Z,21.79
2016-12-19T06:43:59.475Z,21.84
2016-12-19T06:44:59.512Z,21.79
2016-12-19T06:45:59.833Z,22
2016-12-19T06:46:59.862Z,21.94
2016-12-19T06:47:59.298Z,21.96
2016-12-19T06:48:59.919Z,21.88
2016-12-19T06:49:59.956Z,21.88
2016-12-19T06:50:59.364Z,21.99
2016-12-19T06:51:59.385Z,21.99
2016-12-19T06:52:59.421Z,21.92
2016-12-19T06:53:59.751Z,21.98
2016-12-19T06:54:59.791Z,22.02
2016-12-19T06:55:59.808Z,21.9
2016-12-19T06:56:59.537Z,21.92
2016-12-19T06:57:59.865Z,22
2016-12-19T06:59:00.194Z,21.9
2016-12-19T06:59:59.919Z,22.02
2016-12-19T07:01:00.254Z,22.06
2016-12-19T07:01:59.660Z,21.99
2016-12-19T07:03:00.316Z,22.03
2016-12-19T07:04:00.333Z,22.02
2016-12-19T07:05:00.067Z,22.02
2016-12-19T07:05:59.785Z,22
2016-12-19T07:07:00.112Z,22.05
2016-12-19T07:07:59.849Z,21.92
2016-12-19T07:09:00.170Z,22.05
2016-12-19T07:09:59.899Z,21.92
2016-12-19T07:11:00.522Z,21.84
2016-12-19T07:12:00.236Z,21.91
2016-12-19T07:12:59.969Z,21.92
2016-12-19T07:14:00.601Z,21.88
2016-12-19T07:15:00.620Z,21.91
2016-12-19T07:16:00.641Z,21.92
2016-12-19T07:17:00.375Z,21.92
2016-12-19T07:18:00.691Z,21.92
2016-12-19T07:19:00.737Z,21.88
2016-12-19T07:20:00.501Z,21.96
2016-12-19T07:21:00.848Z,21.96
2016-12-19T07:22:00.523Z,21.79
2016-12-19T07:23:00.531Z,21.8
2016-12-19T07:24:00.890Z,21.84
2016-12-19T07:25:00.606Z,21.8
2016-12-19T07:26:00.614Z,21.86
2016-12-19T07:27:00.640Z,21.88
2016-12-19T07:28:00.973Z,21.86
2016-12-19T07:29:00.420Z,21.91
2016-12-19T07:30:00.743Z,21.96
2016-12-19T07:31:01.082Z,21.74
2016-12-19T07:32:01.089Z,21.79
2016-12-19T07:33:01.173Z,21.86
2016-12-19T07:34:01.146Z,21.8
2016-12-19T07:35:00.563Z,21.91
2016-12-19T07:36:01.192Z,21.84
2016-12-19T07:37:01.254Z,21.94
2016-12-19T07:38:00.992Z,21.83
2016-12-19T07:39:01.278Z,21.86
2016-12-19T07:40:01.033Z,21.92
2016-12-19T07:41:01.339Z,21.77
2016-12-19T07:42:01.364Z,21.91
2016-12-19T07:43:01.102Z,21.86
2016-12-19T07:44:01.422Z,21.94
2016-12-19T07:45:01.191Z,21.88
2016-12-19T07:46:01.509Z,21.84
2016-12-19T07:47:01.504Z,21.98
2016-12-19T07:48:01.329Z,21.91
2016-12-19T07:49:01.575Z,21.94
2016-12-19T07:50:01.318Z,21.84
2016-12-19T07:51:01.640Z,21.96
2016-12-19T07:52:01.347Z,21.99
2016-12-19T07:53:01.674Z,22.05
2016-12-19T07:54:01.412Z,21.9
2016-12-19T07:55:01.427Z,22.05
2016-12-19T07:56:01.476Z,22
2016-12-19T07:57:01.833Z,22
2016-12-19T07:58:01.513Z,22.02
2016-12-19T07:59:01.595Z,22.03
2016-12-19T08:00:01.571Z,22.02
2016-12-19T08:01:01.605Z,21.92
2016-12-19T08:02:01.636Z,22.03
2016-12-19T08:03:01.963Z,22.02
2016-12-19T08:04:01.723Z,21.96
2016-12-19T08:05:01.705Z,22
2016-12-19T08:06:01.730Z,21.99
2016-12-19T08:07:01.755Z,21.98
2016-12-19T08:08:02.092Z,22.02
2016-12-19T08:09:02.147Z,22.02
2016-12-19T08:10:01.844Z,22.02
2016-12-19T08:11:01.879Z,22
2016-12-19T08:12:02.230Z,21.99
2016-12-19T08:13:01.961Z,21.91
2016-12-19T08:14:01.666Z,21.98
2016-12-19T08:15:02.286Z,21.9
2016-12-19T08:16:02.012Z,21.91
2016-12-19T08:17:02.342Z,21.91
2016-12-19T08:18:02.064Z,21.91
2016-12-19T08:19:02.440Z,21.88
2016-12-19T08:20:01.819Z,21.84
2016-12-19T08:21:02.467Z,21.9
2016-12-19T08:22:02.181Z,21.91
2016-12-19T08:23:01.905Z,21.92
2016-12-19T08:24:02.368Z,21.86
2016-12-19T08:25:01.979Z,21.96
2016-12-19T08:26:03.205Z,21.88
2016-12-19T08:27:03.380Z,21.86
2016-12-19T08:28:03.119Z,21.96
2016-12-19T08:29:03.242Z,21.83
2016-12-19T08:30:02.699Z,21.79
2016-12-19T08:31:03.204Z,21.83
2016-12-19T08:32:02.913Z,21.83
2016-12-19T08:33:03.355Z,21.92
2016-12-19T08:34:03.388Z,21.79
2016-12-19T08:35:03.398Z,21.91
2016-12-19T08:36:03.664Z,21.92
2016-12-19T08:37:03.729Z,21.92
2016-12-19T08:38:03.653Z,21.92
2016-12-19T08:39:03.502Z,21.98
2016-12-19T08:40:03.842Z,21.98
2016-12-19T08:41:03.882Z,21.91
2016-12-19T08:42:03.308Z,21.94
2016-12-19T08:43:03.949Z,21.92
2016-12-19T08:44:03.409Z,21.92
2016-12-19T08:45:03.975Z,21.86
2016-12-19T08:46:03.738Z,21.92
2016-12-19T08:47:03.776Z,21.9
2016-12-19T08:48:03.276Z,21.88
2016-12-19T08:49:04.130Z,21.92
2016-12-19T08:50:03.757Z,21.86
2016-12-19T08:51:03.818Z,21.86
2016-12-19T08:52:03.958Z,21.88
2016-12-19T08:53:03.264Z,21.92
2016-12-19T08:54:03.551Z,21.92
2016-12-19T08:55:04.190Z,21.91
2016-12-19T08:56:03.907Z,21.86
2016-12-19T08:57:04.260Z,21.94
2016-12-19T08:58:03.777Z,21.96
2016-12-19T08:59:03.788Z,21.83
2016-12-19T09:00:03.845Z,21.9
2016-12-19T09:01:03.665Z,21.91
2016-12-19T09:02:03.064Z,21.96
2016-12-19T09:03:03.742Z,21.83
2016-12-19T09:04:03.532Z,21.83
2016-12-19T09:05:03.943Z,21.96
2016-12-19T09:06:03.949Z,21.9
2016-12-19T09:07:03.334Z,21.92
2016-12-19T09:08:03.579Z,21.88
2016-12-19T09:09:04.028Z,21.84
2016-12-19T09:10:03.919Z,21.79
2016-12-19T09:11:03.817Z,21.94
2016-12-19T09:12:04.442Z,21.88
2016-12-19T09:13:03.662Z,21.98
2016-12-19T09:14:04.183Z,21.88
2016-12-19T09:15:04.173Z,21.86
2016-12-19T09:16:03.983Z,21.9
2016-12-19T09:17:04.151Z,21.94
2016-12-19T09:18:04.289Z,21.94
2016-12-19T09:19:03.543Z,21.88
2016-12-19T09:20:03.848Z,21.92
2016-12-19T09:21:04.393Z,21.92
2016-12-19T09:22:04.722Z,22.02
2016-12-19T09:23:04.021Z,22
2016-12-19T09:24:04.381Z,22
2016-12-19T09:25:04.255Z,22
2016-12-19T09:26:04.431Z,22
2016-12-19T09:27:05.086Z,22
2016-12-19T09:28:04.399Z,22.03
2016-12-19T09:29:05.000Z,22.03
2016-12-19T09:30:04.467Z,22.05
2016-12-19T09:31:04.506Z,22.02
2016-12-19T09:32:04.406Z,22.09
2016-12-19T09:33:05.291Z,22.05
2016-12-19T09:34:04.906Z,22.03
2016-12-19T09:35:04.825Z,22.09
2016-12-19T09:36:04.709Z,22.02
2016-12-19T09:37:04.862Z,22
2016-12-19T09:38:04.609Z,22.03
2016-12-19T09:39:04.892Z,22.05
2016-12-19T09:40:04.583Z,22
2016-12-19T09:41:04.100Z,21.9
2016-12-19T09:42:04.428Z,21.9
2016-12-19T09:43:04.761Z,21.9
2016-12-19T09:44:04.182Z,22
2016-12-19T09:45:04.514Z,21.98
2016-12-19T09:46:04.851Z,21.9
2016-12-19T09:47:04.262Z,21.92
2016-12-19T09:48:04.597Z,21.9
2016-12-19T09:49:04.926Z,21.92
2016-12-19T09:50:04.959Z,21.88
2016-12-19T09:51:04.367Z,21.91
2016-12-19T09:52:04.404Z,21.88
2016-12-19T09:53:04.729Z,21.86
2016-12-19T09:54:04.762Z,21.84
2016-12-19T09:55:04.790Z,21.88
2016-12-19T09:56:04.515Z,22
2016-12-19T09:57:05.148Z,21.9
2016-12-19T09:58:04.573Z,22
2016-12-19T09:59:05.206Z,22.02
2016-12-19T10:00:04.931Z,21.98
2016-12-19T10:01:04.955Z,22
2016-12-19T10:02:04.996Z,22.06
2016-12-19T10:03:04.745Z,22.03
2016-12-19T10:04:05.037Z,22
2016-12-19T10:05:05.062Z,22.06
2016-12-19T10:06:04.792Z,22.03
2016-12-19T10:07:04.828Z,22.12
2016-12-19T10:08:05.149Z,22.06
2016-12-19T10:09:04.881Z,22.09
2016-12-19T10:10:05.519Z,22.1
2016-12-19T10:11:05.543Z,22.07
2016-12-19T10:12:04.964Z,22.05
2016-12-19T10:13:05.293Z,22
2016-12-19T10:14:05.321Z,22.07
2016-12-19T10:15:05.351Z,22.05
2016-12-19T10:16:05.671Z,22.06
2016-12-19T10:17:05.432Z,22.02
2016-12-19T10:18:05.433Z,22.06
2016-12-19T10:19:05.467Z,22.09
2016-12-19T10:20:05.503Z,22.06
2016-12-19T10:21:05.523Z,22.03
2016-12-19T10:22:05.548Z,22.06
2016-12-19T10:23:05.572Z,22.06
2016-12-19T10:24:05.910Z,22.09
2016-12-19T10:25:05.646Z,22.06
2016-12-19T10:26:05.655Z,22.05
2016-12-19T10:27:05.687Z,22.05
2016-12-19T10:28:05.712Z,22.07
2016-12-19T10:29:06.050Z,22.09
2016-12-19T10:30:05.470Z,22.12
2016-12-19T10:31:06.107Z,22.02
2016-12-19T10:32:05.824Z,22.07
2016-12-19T10:33:05.849Z,22.06
2016-12-19T10:34:06.194Z,22.07
2016-12-19T10:35:05.914Z,22.05
2016-12-19T10:36:05.939Z,22.06
2016-12-19T10:37:05.659Z,22.02
2016-12-19T10:38:06.304Z,22.03
2016-12-19T10:39:06.025Z,22.03
2016-12-19T10:40:06.055Z,22
2016-12-19T10:41:06.383Z,22.05
2016-12-19T10:42:06.416Z,22.05
2016-12-19T10:43:05.829Z,22.07
2016-12-19T10:44:06.157Z,22.03
2016-12-19T10:45:06.187Z,22.07
2016-12-19T10:46:05.915Z,22.03
2016-12-19T10:47:06.239Z,22.1
2016-12-19T10:48:06.273Z,21.98
2016-12-19T10:49:06.001Z,21.98
2016-12-19T10:50:06.638Z,22.03
2016-12-19T10:51:06.667Z,22.02
2016-12-19T10:52:06.391Z,22.06
2016-12-19T10:53:06.724Z,22.05
2016-12-19T10:54:06.749Z,22.02
2016-12-19T10:55:06.478Z,22.02
2016-12-19T10:56:06.507Z,22.03
2016-12-19T10:57:06.223Z,22.1
2016-12-19T10:58:06.862Z,22.05
2016-12-19T10:59:06.585Z,22.05
2016-12-19T11:00:06.313Z,22.09
2016-12-19T11:01:06.338Z,22.07
2016-12-19T11:02:06.679Z,22.09
2016-12-19T11:03:06.999Z,22.14
2016-12-19T11:04:06.729Z,22.1
2016-12-19T11:05:06.757Z,22.06
2016-12-19T11:06:06.782Z,22.05
2016-12-19T11:07:07.115Z,22.1
2016-12-19T11:08:06.831Z,22.07
2016-12-19T11:09:06.864Z,22.09
2016-12-19T11:10:06.889Z,22.1
2016-12-19T11:11:06.918Z,22.09
2016-12-19T11:12:06.638Z,22.05
2016-12-19T11:13:06.671Z,22.05
2016-12-19T11:14:07.303Z,22.09
2016-12-19T11:15:06.720Z,22.12
2016-12-19T11:16:07.062Z,22.05
2016-12-19T11:17:06.781Z,22.03
2016-12-19T11:18:07.117Z,21.99
2016-12-19T11:19:07.150Z,21.99
2016-12-19T11:20:06.864Z,22.09
2016-12-19T11:21:06.892Z,22.03
2016-12-19T11:22:06.925Z,22.02
2016-12-19T11:23:07.256Z,22.05
2016-12-19T11:24:06.983Z,22
2016-12-19T11:25:07.619Z,22.09
2016-12-19T11:26:07.366Z,22.03
2016-12-19T11:27:07.062Z,22.03
2016-12-19T11:28:07.458Z,22.1
2016-12-19T11:29:07.423Z,22.02
2016-12-19T11:30:07.530Z,22.12
2016-12-19T11:31:07.480Z,22.1
2016-12-19T11:32:07.505Z,22.12
2016-12-19T11:33:07.532Z,22
2016-12-19T11:34:07.259Z,21.94
2016-12-19T11:35:07.896Z,22.07
2016-12-19T11:36:07.319Z,22
2016-12-19T11:37:07.946Z,22.02
2016-12-19T11:38:07.668Z,22.03
2016-12-19T11:39:07.399Z,21.98
2016-12-19T11:40:07.739Z,22.07
2016-12-19T11:41:08.064Z,22.02
2016-12-19T11:42:08.093Z,22.07
2016-12-19T11:43:07.820Z,22.03
2016-12-19T11:44:08.154Z,22
2016-12-19T11:45:07.571Z,22.09
2016-12-19T11:46:08.208Z,22.03
2016-12-19T11:47:07.920Z,22.15
2016-12-19T11:48:07.941Z,22.06
2016-12-19T11:49:07.682Z,21.99
2016-12-19T11:50:08.007Z,22.09
2016-12-19T11:51:08.351Z,22.09
2016-12-19T11:52:08.064Z,22.12
2016-12-19T11:53:07.793Z,22.15
2016-12-19T11:54:08.430Z,22.12
2016-12-19T11:55:08.151Z,22.17
2016-12-19T11:56:07.883Z,22.07
2016-12-19T11:57:08.518Z,22.12
2016-12-19T11:58:08.531Z,22.12
2016-12-19T11:59:08.265Z,22.03
2016-12-19T12:00:08.288Z,22.05
2016-12-19T12:01:08.623Z,22.03
2016-12-19T12:02:08.336Z,22.09
2016-12-19T12:03:08.373Z,22.02
2016-12-19T12:04:08.094Z,22.06
2016-12-19T12:05:08.739Z,22.07
2016-12-19T12:06:08.159Z,22.07
2016-12-19T12:07:08.793Z,22.03
2016-12-19T12:08:08.812Z,22.09
2016-12-19T12:09:08.533Z,22
2016-12-19T12:10:08.566Z,22.02
2016-12-19T12:11:08.594Z,21.99
2016-12-19T12:12:08.327Z,22.05
2016-12-19T12:13:08.344Z,22.05
2016-12-19T12:14:08.373Z,22
2016-12-19T12:15:09.010Z,22
2016-12-19T12:16:08.431Z,22
2016-12-19T12:17:08.768Z,22
2016-12-19T12:18:08.536Z,22.02
2016-12-19T12:19:08.808Z,21.88
2016-12-19T12:20:08.533Z,21.9
2016-12-19T12:21:08.570Z,21.84
2016-12-19T12:22:08.901Z,21.92
2016-12-19T12:23:08.928Z,21.9
2016-12-19T12:24:08.657Z,21.94
2016-12-19T12:25:08.994Z,21.92
2016-12-19T12:26:09.018Z,21.92
2016-12-19T12:27:08.743Z,21.98
2016-12-19T12:28:09.077Z,21.96
2016-12-19T12:29:09.101Z,21.94
2016-12-19T12:30:08.825Z,21.86
2016-12-19T12:31:09.450Z,21.96
2016-12-19T12:32:09.187Z,21.91
2016-12-19T12:33:09.220Z,21.91
2016-12-19T12:34:08.936Z,21.9
2016-12-19T12:35:09.269Z,21.91
2016-12-19T12:36:09.606Z,21.88
2016-12-19T12:37:09.327Z,21.99
2016-12-19T12:38:09.664Z,21.86
2016-12-19T12:39:09.372Z,22
2016-12-19T12:40:09.713Z,22.07
2016-12-19T12:41:09.425Z,22.09
2016-12-19T12:42:09.151Z,22
2016-12-19T12:43:09.527Z,21.92
2016-12-19T12:44:09.521Z,22.03
2016-12-19T12:45:09.541Z,22.02
2016-12-19T12:46:09.878Z,21.98
2016-12-19T12:47:09.307Z,22.07
2016-12-19T12:48:09.636Z,22.07
2016-12-19T12:49:09.973Z,22.06
2016-12-19T12:50:10.013Z,22.03
2016-12-19T12:51:10.009Z,22.06
2016-12-19T12:52:09.738Z,22.02
2016-12-19T12:53:09.757Z,22.06
2016-12-19T12:54:09.498Z,21.99
2016-12-19T12:55:10.137Z,22.03
2016-12-19T12:56:10.149Z,22.12
2016-12-19T12:57:09.575Z,21.98
2016-12-19T12:58:09.916Z,22.05